sensor_id;sensor_type;location;lat;lon;timestamp;temperature;humidity
22290;DHT22;11313;50.116;8.424;2023-07-31T00:02:00;25.90;56.80
22290;DHT22;11313;50.116;8.424;2023-07-31T00:04:26;25.90;56.80
22290;DHT22;11313;50.116;8.424;2023-07-31T00:06:51;25.90;56.80
22290;DHT22;11313;50.116;8.424;2023-07-31T00:09:17;25.90;56.80
22290;DHT22;11313;50.116;8.424;2023-07-31T00:11:42;25.90;56.70
22290;DHT22;11313;50.116;8.424;2023-07-31T00:14:08;25.90;56.80
22290;DHT22;11313;50.116;8.424;2023-07-31T00:16:33;25.90;56.70
22290;DHT22;11313;50.116;8.424;2023-07-31T00:18:59;25.90;57.40
22290;DHT22;11313;50.116;8.424;2023-07-31T00:21:24;25.90;56.80
22290;DHT22;11313;50.116;8.424;2023-07-31T00:23:50;25.90;56.80
22290;DHT22;11313;50.116;8.424;2023-07-31T00:26:15;25.90;56.80
22290;DHT22;11313;50.116;8.424;2023-07-31T00:28:41;25.90;56.80
22290;DHT22;11313;50.116;8.424;2023-07-31T00:31:06;25.90;56.80
22290;DHT22;11313;50.116;8.424;2023-07-31T00:33:34;25.80;56.70
22290;DHT22;11313;50.116;8.424;2023-07-31T00:35:59;25.80;56.80
22290;DHT22;11313;50.116;8.424;2023-07-31T00:38:25;25.80;56.70
22290;DHT22;11313;50.116;8.424;2023-07-31T00:40:50;25.80;56.80
22290;DHT22;11313;50.116;8.424;2023-07-31T00:43:16;25.80;56.80
22290;DHT22;11313;50.116;8.424;2023-07-31T00:45:41;25.80;56.80
22290;DHT22;11313;50.116;8.424;2023-07-31T00:48:07;25.80;56.80
22290;DHT22;11313;50.116;8.424;2023-07-31T00:50:33;25.80;57.40
22290;DHT22;11313;50.116;8.424;2023-07-31T00:52:59;25.80;56.80
22290;DHT22;11313;50.116;8.424;2023-07-31T00:55:25;25.80;56.80
22290;DHT22;11313;50.116;8.424;2023-07-31T00:57:51;25.80;56.70
22290;DHT22;11313;50.116;8.424;2023-07-31T01:00:18;25.80;56.80
22290;DHT22;11313;50.116;8.424;2023-07-31T01:02:44;25.80;56.80
22290;DHT22;11313;50.116;8.424;2023-07-31T01:05:09;25.80;56.80
22290;DHT22;11313;50.116;8.424;2023-07-31T01:07:53;25.80;56.80
22290;DHT22;11313;50.116;8.424;2023-07-31T01:10:24;25.80;56.80
22290;DHT22;11313;50.116;8.424;2023-07-31T01:12:53;25.80;56.80
22290;DHT22;11313;50.116;8.424;2023-07-31T01:15:19;25.80;56.80
22290;DHT22;11313;50.116;8.424;2023-07-31T01:17:45;25.80;56.80
22290;DHT22;11313;50.116;8.424;2023-07-31T01:20:13;25.80;56.80
22290;DHT22;11313;50.116;8.424;2023-07-31T01:26:16;25.80;56.80
22290;DHT22;11313;50.116;8.424;2023-07-31T01:29:14;25.80;56.80
22290;DHT22;11313;50.116;8.424;2023-07-31T01:31:36;25.80;56.80
22290;DHT22;11313;50.116;8.424;2023-07-31T01:34:02;25.80;56.80
22290;DHT22;11313;50.116;8.424;2023-07-31T01:36:30;25.80;56.80
22290;DHT22;11313;50.116;8.424;2023-07-31T01:38:59;25.80;56.80
22290;DHT22;11313;50.116;8.424;2023-07-31T01:41:26;25.80;56.80
22290;DHT22;11313;50.116;8.424;2023-07-31T01:43:51;25.70;56.70
22290;DHT22;11313;50.116;8.424;2023-07-31T01:46:17;25.70;56.70
22290;DHT22;11313;50.116;8.424;2023-07-31T01:48:42;25.70;56.50
22290;DHT22;11313;50.116;8.424;2023-07-31T01:51:08;25.70;56.70
22290;DHT22;11313;50.116;8.424;2023-07-31T01:53:33;25.70;56.70
22290;DHT22;11313;50.116;8.424;2023-07-31T01:55:59;25.70;56.80
22290;DHT22;11313;50.116;8.424;2023-07-31T01:58:24;25.70;56.80
22290;DHT22;11313;50.116;8.424;2023-07-31T02:00:50;25.70;56.70
22290;DHT22;11313;50.116;8.424;2023-07-31T02:03:15;25.70;56.70
22290;DHT22;11313;50.116;8.424;2023-07-31T02:05:47;25.70;56.70
22290;DHT22;11313;50.116;8.424;2023-07-31T02:08:13;25.70;56.70
22290;DHT22;11313;50.116;8.424;2023-07-31T02:10:39;25.70;56.70
22290;DHT22;11313;50.116;8.424;2023-07-31T02:13:05;25.70;56.70
22290;DHT22;11313;50.116;8.424;2023-07-31T02:15:30;25.70;56.70
22290;DHT22;11313;50.116;8.424;2023-07-31T02:17:56;25.70;56.70
22290;DHT22;11313;50.116;8.424;2023-07-31T02:20:22;25.70;57.30
22290;DHT22;11313;50.116;8.424;2023-07-31T02:22:47;25.70;56.70
22290;DHT22;11313;50.116;8.424;2023-07-31T02:25:13;25.70;56.70
22290;DHT22;11313;50.116;8.424;2023-07-31T02:27:38;25.70;56.70
22290;DHT22;11313;50.116;8.424;2023-07-31T02:30:04;25.70;56.70
22290;DHT22;11313;50.116;8.424;2023-07-31T02:32:30;25.70;56.70
22290;DHT22;11313;50.116;8.424;2023-07-31T02:34:55;25.70;56.70
22290;DHT22;11313;50.116;8.424;2023-07-31T02:37:21;25.70;56.70
22290;DHT22;11313;50.116;8.424;2023-07-31T02:39:46;25.70;56.70
22290;DHT22;11313;50.116;8.424;2023-07-31T02:42:13;25.70;56.70
22290;DHT22;11313;50.116;8.424;2023-07-31T02:44:38;25.70;56.70
22290;DHT22;11313;50.116;8.424;2023-07-31T02:47:04;25.70;56.70
22290;DHT22;11313;50.116;8.424;2023-07-31T02:49:30;25.70;56.70
22290;DHT22;11313;50.116;8.424;2023-07-31T02:51:55;25.70;56.70
22290;DHT22;11313;50.116;8.424;2023-07-31T02:54:21;25.70;56.70
22290;DHT22;11313;50.116;8.424;2023-07-31T02:56:47;25.70;56.70
22290;DHT22;11313;50.116;8.424;2023-07-31T02:59:13;25.70;56.70
22290;DHT22;11313;50.116;8.424;2023-07-31T03:01:38;25.70;56.70
22290;DHT22;11313;50.116;8.424;2023-07-31T03:04:04;25.70;56.70
22290;DHT22;11313;50.116;8.424;2023-07-31T03:06:29;25.70;56.70
22290;DHT22;11313;50.116;8.424;2023-07-31T03:08:55;25.70;56.70
22290;DHT22;11313;50.116;8.424;2023-07-31T03:11:21;25.70;56.70
22290;DHT22;11313;50.116;8.424;2023-07-31T03:13:46;25.70;56.70
22290;DHT22;11313;50.116;8.424;2023-07-31T03:16:12;25.70;56.70
22290;DHT22;11313;50.116;8.424;2023-07-31T03:18:37;25.70;56.70
22290;DHT22;11313;50.116;8.424;2023-07-31T03:21:04;25.70;56.70
22290;DHT22;11313;50.116;8.424;2023-07-31T03:23:29;25.70;56.70
22290;DHT22;11313;50.116;8.424;2023-07-31T03:25:56;25.70;56.70
22290;DHT22;11313;50.116;8.424;2023-07-31T03:28:22;25.70;56.70
22290;DHT22;11313;50.116;8.424;2023-07-31T03:30:48;25.70;56.70
22290;DHT22;11313;50.116;8.424;2023-07-31T03:33:13;25.70;56.70
22290;DHT22;11313;50.116;8.424;2023-07-31T03:35:39;25.70;56.70
22290;DHT22;11313;50.116;8.424;2023-07-31T03:38:04;25.70;56.70
22290;DHT22;11313;50.116;8.424;2023-07-31T03:40:29;25.70;56.70
22290;DHT22;11313;50.116;8.424;2023-07-31T03:42:55;25.70;56.70
22290;DHT22;11313;50.116;8.424;2023-07-31T03:45:20;25.70;56.70
22290;DHT22;11313;50.116;8.424;2023-07-31T03:47:46;25.70;56.70
22290;DHT22;11313;50.116;8.424;2023-07-31T03:50:11;25.70;56.70
22290;DHT22;11313;50.116;8.424;2023-07-31T03:52:37;25.70;56.60
22290;DHT22;11313;50.116;8.424;2023-07-31T03:55:03;25.70;56.70
22290;DHT22;11313;50.116;8.424;2023-07-31T03:57:28;25.70;56.60
22290;DHT22;11313;50.116;8.424;2023-07-31T03:59:54;25.70;56.60
22290;DHT22;11313;50.116;8.424;2023-07-31T04:02:19;25.70;56.60
22290;DHT22;11313;50.116;8.424;2023-07-31T04:04:45;25.70;56.70
22290;DHT22;11313;50.116;8.424;2023-07-31T04:07:10;25.70;56.70
22290;DHT22;11313;50.116;8.424;2023-07-31T04:09:36;25.70;56.60
22290;DHT22;11313;50.116;8.424;2023-07-31T04:12:01;25.70;56.70
22290;DHT22;11313;50.116;8.424;2023-07-31T04:14:27;25.70;56.60
22290;DHT22;11313;50.116;8.424;2023-07-31T04:16:52;25.70;56.60
22290;DHT22;11313;50.116;8.424;2023-07-31T04:19:17;25.70;56.60
22290;DHT22;11313;50.116;8.424;2023-07-31T04:21:43;25.60;56.00
22290;DHT22;11313;50.116;8.424;2023-07-31T04:24:09;25.60;56.10
22290;DHT22;11313;50.116;8.424;2023-07-31T04:26:34;25.60;56.30
22290;DHT22;11313;50.116;8.424;2023-07-31T04:29:00;25.60;56.50
22290;DHT22;11313;50.116;8.424;2023-07-31T04:31:25;25.60;56.60
22290;DHT22;11313;50.116;8.424;2023-07-31T04:33:51;25.60;56.60
22290;DHT22;11313;50.116;8.424;2023-07-31T04:36:16;25.60;56.60
22290;DHT22;11313;50.116;8.424;2023-07-31T04:38:42;25.70;56.60
22290;DHT22;11313;50.116;8.424;2023-07-31T04:41:07;25.60;56.50
22290;DHT22;11313;50.116;8.424;2023-07-31T04:43:33;25.60;56.60
22290;DHT22;11313;50.116;8.424;2023-07-31T04:45:58;25.70;56.60
22290;DHT22;11313;50.116;8.424;2023-07-31T04:48:24;25.70;56.60
22290;DHT22;11313;50.116;8.424;2023-07-31T04:50:49;25.60;56.50
22290;DHT22;11313;50.116;8.424;2023-07-31T04:53:15;25.70;56.60
22290;DHT22;11313;50.116;8.424;2023-07-31T04:55:40;25.70;56.60
22290;DHT22;11313;50.116;8.424;2023-07-31T04:58:06;25.70;56.60
22290;DHT22;11313;50.116;8.424;2023-07-31T05:00:31;25.70;56.60
22290;DHT22;11313;50.116;8.424;2023-07-31T05:02:57;25.70;56.60
22290;DHT22;11313;50.116;8.424;2023-07-31T05:05:22;25.70;56.60
22290;DHT22;11313;50.116;8.424;2023-07-31T05:07:48;25.70;56.60
22290;DHT22;11313;50.116;8.424;2023-07-31T05:10:13;25.70;56.50
22290;DHT22;11313;50.116;8.424;2023-07-31T05:12:39;25.70;56.50
22290;DHT22;11313;50.116;8.424;2023-07-31T05:15:05;25.70;56.50
22290;DHT22;11313;50.116;8.424;2023-07-31T05:17:31;25.70;56.50
22290;DHT22;11313;50.116;8.424;2023-07-31T05:19:56;25.70;56.50
22290;DHT22;11313;50.116;8.424;2023-07-31T05:22:22;25.70;56.60
22290;DHT22;11313;50.116;8.424;2023-07-31T05:24:48;25.60;56.50
22290;DHT22;11313;50.116;8.424;2023-07-31T05:27:13;25.70;56.50
22290;DHT22;11313;50.116;8.424;2023-07-31T05:29:40;25.70;56.50
22290;DHT22;11313;50.116;8.424;2023-07-31T05:32:06;25.70;56.50
22290;DHT22;11313;50.116;8.424;2023-07-31T05:34:32;25.60;56.50
22290;DHT22;11313;50.116;8.424;2023-07-31T05:36:57;25.60;56.50
22290;DHT22;11313;50.116;8.424;2023-07-31T05:39:23;25.60;56.50
22290;DHT22;11313;50.116;8.424;2023-07-31T05:41:48;25.60;56.50
22290;DHT22;11313;50.116;8.424;2023-07-31T05:44:14;25.60;56.50
22290;DHT22;11313;50.116;8.424;2023-07-31T05:46:39;25.60;56.50
22290;DHT22;11313;50.116;8.424;2023-07-31T05:49:05;25.60;56.50
22290;DHT22;11313;50.116;8.424;2023-07-31T05:51:30;25.60;56.50
22290;DHT22;11313;50.116;8.424;2023-07-31T05:53:56;25.60;56.50
22290;DHT22;11313;50.116;8.424;2023-07-31T05:56:21;25.70;56.60
22290;DHT22;11313;50.116;8.424;2023-07-31T05:58:47;25.60;56.50
22290;DHT22;11313;50.116;8.424;2023-07-31T06:01:15;25.60;56.50
22290;DHT22;11313;50.116;8.424;2023-07-31T06:03:40;25.70;56.50
22290;DHT22;11313;50.116;8.424;2023-07-31T06:06:06;25.60;56.50
22290;DHT22;11313;50.116;8.424;2023-07-31T06:08:31;25.60;56.50
22290;DHT22;11313;50.116;8.424;2023-07-31T06:10:57;25.60;56.40
22290;DHT22;11313;50.116;8.424;2023-07-31T06:13:22;25.60;56.50
22290;DHT22;11313;50.116;8.424;2023-07-31T06:15:48;25.60;56.40
22290;DHT22;11313;50.116;8.424;2023-07-31T06:18:13;25.60;56.40
22290;DHT22;11313;50.116;8.424;2023-07-31T06:20:39;25.70;56.50
22290;DHT22;11313;50.116;8.424;2023-07-31T06:23:06;25.60;56.50
22290;DHT22;11313;50.116;8.424;2023-07-31T06:25:31;25.60;56.50
22290;DHT22;11313;50.116;8.424;2023-07-31T06:27:57;25.60;56.40
22290;DHT22;11313;50.116;8.424;2023-07-31T06:30:22;25.60;56.40
22290;DHT22;11313;50.116;8.424;2023-07-31T06:32:48;25.60;56.40
22290;DHT22;11313;50.116;8.424;2023-07-31T06:35:13;25.60;56.40
22290;DHT22;11313;50.116;8.424;2023-07-31T06:37:38;25.60;56.40
22290;DHT22;11313;50.116;8.424;2023-07-31T06:40:06;25.60;56.40
22290;DHT22;11313;50.116;8.424;2023-07-31T06:42:34;25.60;56.40
22290;DHT22;11313;50.116;8.424;2023-07-31T06:45:00;25.60;56.40
22290;DHT22;11313;50.116;8.424;2023-07-31T06:47:26;25.60;56.40
22290;DHT22;11313;50.116;8.424;2023-07-31T06:49:51;25.60;56.40
22290;DHT22;11313;50.116;8.424;2023-07-31T06:52:17;25.60;56.40
22290;DHT22;11313;50.116;8.424;2023-07-31T06:54:42;25.60;56.50
22290;DHT22;11313;50.116;8.424;2023-07-31T06:57:08;25.60;56.40
22290;DHT22;11313;50.116;8.424;2023-07-31T06:59:33;25.60;56.50
22290;DHT22;11313;50.116;8.424;2023-07-31T07:01:59;25.60;56.40
22290;DHT22;11313;50.116;8.424;2023-07-31T07:04:24;25.60;56.40
22290;DHT22;11313;50.116;8.424;2023-07-31T07:06:50;25.60;56.40
22290;DHT22;11313;50.116;8.424;2023-07-31T07:09:15;25.60;56.40
22290;DHT22;11313;50.116;8.424;2023-07-31T07:11:41;25.60;56.40
22290;DHT22;11313;50.116;8.424;2023-07-31T07:14:06;25.60;56.40
22290;DHT22;11313;50.116;8.424;2023-07-31T07:16:32;25.60;56.40
22290;DHT22;11313;50.116;8.424;2023-07-31T07:18:57;25.60;56.40
22290;DHT22;11313;50.116;8.424;2023-07-31T07:21:23;25.60;56.40
22290;DHT22;11313;50.116;8.424;2023-07-31T07:23:48;25.60;56.40
22290;DHT22;11313;50.116;8.424;2023-07-31T07:26:14;25.60;56.40
22290;DHT22;11313;50.116;8.424;2023-07-31T07:28:39;25.60;56.40
22290;DHT22;11313;50.116;8.424;2023-07-31T07:31:05;25.70;56.50
22290;DHT22;11313;50.116;8.424;2023-07-31T07:33:30;25.60;56.40
22290;DHT22;11313;50.116;8.424;2023-07-31T07:36:00;25.60;56.40
22290;DHT22;11313;50.116;8.424;2023-07-31T07:38:26;25.60;56.40
22290;DHT22;11313;50.116;8.424;2023-07-31T07:40:51;25.60;56.40
22290;DHT22;11313;50.116;8.424;2023-07-31T07:43:18;25.60;56.40
22290;DHT22;11313;50.116;8.424;2023-07-31T07:45:44;25.60;56.40
22290;DHT22;11313;50.116;8.424;2023-07-31T07:48:09;25.60;56.30
22290;DHT22;11313;50.116;8.424;2023-07-31T07:50:35;25.60;56.40
22290;DHT22;11313;50.116;8.424;2023-07-31T07:53:00;25.70;56.40
22290;DHT22;11313;50.116;8.424;2023-07-31T07:55:26;25.60;56.30
22290;DHT22;11313;50.116;8.424;2023-07-31T07:57:51;25.60;56.30
22290;DHT22;11313;50.116;8.424;2023-07-31T08:00:18;25.60;56.30
22290;DHT22;11313;50.116;8.424;2023-07-31T08:02:44;25.60;56.30
22290;DHT22;11313;50.116;8.424;2023-07-31T08:05:10;25.60;56.30
22290;DHT22;11313;50.116;8.424;2023-07-31T08:07:35;25.70;56.40
22290;DHT22;11313;50.116;8.424;2023-07-31T08:10:00;25.60;56.30
22290;DHT22;11313;50.116;8.424;2023-07-31T08:12:26;25.60;56.30
22290;DHT22;11313;50.116;8.424;2023-07-31T08:14:51;25.70;56.40
22290;DHT22;11313;50.116;8.424;2023-07-31T08:17:17;25.60;56.30
22290;DHT22;11313;50.116;8.424;2023-07-31T08:19:43;25.60;56.30
22290;DHT22;11313;50.116;8.424;2023-07-31T08:22:09;25.60;56.30
22290;DHT22;11313;50.116;8.424;2023-07-31T08:24:35;25.70;56.40
22290;DHT22;11313;50.116;8.424;2023-07-31T08:27:00;25.60;56.30
22290;DHT22;11313;50.116;8.424;2023-07-31T08:29:26;25.60;56.30
22290;DHT22;11313;50.116;8.424;2023-07-31T08:31:51;25.70;56.30
22290;DHT22;11313;50.116;8.424;2023-07-31T08:34:17;25.60;56.20
22290;DHT22;11313;50.116;8.424;2023-07-31T08:36:42;25.60;56.20
22290;DHT22;11313;50.116;8.424;2023-07-31T08:39:08;25.60;56.30
22290;DHT22;11313;50.116;8.424;2023-07-31T08:41:40;25.70;56.40
22290;DHT22;11313;50.116;8.424;2023-07-31T08:44:07;25.60;56.20
22290;DHT22;11313;50.116;8.424;2023-07-31T08:46:34;25.60;56.30
22290;DHT22;11313;50.116;8.424;2023-07-31T08:49:00;25.60;56.20
22290;DHT22;11313;50.116;8.424;2023-07-31T08:51:26;25.60;56.20
22290;DHT22;11313;50.116;8.424;2023-07-31T08:53:53;25.60;56.20
22290;DHT22;11313;50.116;8.424;2023-07-31T08:56:19;25.60;56.20
22290;DHT22;11313;50.116;8.424;2023-07-31T08:58:46;25.60;56.20
22290;DHT22;11313;50.116;8.424;2023-07-31T09:01:13;25.60;56.20
22290;DHT22;11313;50.116;8.424;2023-07-31T09:03:39;25.60;56.20
22290;DHT22;11313;50.116;8.424;2023-07-31T09:06:06;25.60;56.20
22290;DHT22;11313;50.116;8.424;2023-07-31T09:08:32;25.60;56.20
22290;DHT22;11313;50.116;8.424;2023-07-31T09:11:01;25.60;56.20
22290;DHT22;11313;50.116;8.424;2023-07-31T09:13:31;25.60;56.20
22290;DHT22;11313;50.116;8.424;2023-07-31T09:15:57;25.70;56.30
22290;DHT22;11313;50.116;8.424;2023-07-31T09:18:22;25.70;56.30
22290;DHT22;11313;50.116;8.424;2023-07-31T09:21:03;25.70;56.30
22290;DHT22;11313;50.116;8.424;2023-07-31T09:23:46;25.60;56.20
22290;DHT22;11313;50.116;8.424;2023-07-31T09:28:58;25.60;56.20
22290;DHT22;11313;50.116;8.424;2023-07-31T09:31:43;25.60;56.20
22290;DHT22;11313;50.116;8.424;2023-07-31T09:34:09;25.60;56.20
22290;DHT22;11313;50.116;8.424;2023-07-31T09:39:09;25.60;56.20
22290;DHT22;11313;50.116;8.424;2023-07-31T09:41:43;25.60;56.20
22290;DHT22;11313;50.116;8.424;2023-07-31T09:44:09;25.60;56.20
22290;DHT22;11313;50.116;8.424;2023-07-31T09:46:35;25.60;56.10
22290;DHT22;11313;50.116;8.424;2023-07-31T09:49:10;25.60;56.10
22290;DHT22;11313;50.116;8.424;2023-07-31T09:51:37;25.70;56.30
22290;DHT22;11313;50.116;8.424;2023-07-31T09:54:10;25.70;56.30
22290;DHT22;11313;50.116;8.424;2023-07-31T09:56:47;25.70;56.30
22290;DHT22;11313;50.116;8.424;2023-07-31T09:59:19;25.70;56.30
22290;DHT22;11313;50.116;8.424;2023-07-31T10:01:46;25.60;56.10
22290;DHT22;11313;50.116;8.424;2023-07-31T10:04:13;25.70;56.20
22290;DHT22;11313;50.116;8.424;2023-07-31T10:06:40;25.70;56.30
22290;DHT22;11313;50.116;8.424;2023-07-31T10:09:08;25.60;56.20
22290;DHT22;11313;50.116;8.424;2023-07-31T10:11:45;25.70;56.20
22290;DHT22;11313;50.116;8.424;2023-07-31T10:14:18;25.70;56.30
22290;DHT22;11313;50.116;8.424;2023-07-31T10:16:45;25.70;56.30
22290;DHT22;11313;50.116;8.424;2023-07-31T10:19:10;25.70;56.30
22290;DHT22;11313;50.116;8.424;2023-07-31T10:21:36;25.70;56.30
22290;DHT22;11313;50.116;8.424;2023-07-31T10:24:04;25.70;56.30
22290;DHT22;11313;50.116;8.424;2023-07-31T10:26:31;25.70;56.30
22290;DHT22;11313;50.116;8.424;2023-07-31T10:28:58;25.70;56.30
22290;DHT22;11313;50.116;8.424;2023-07-31T10:31:24;25.70;56.30
22290;DHT22;11313;50.116;8.424;2023-07-31T10:33:51;25.70;56.30
22290;DHT22;11313;50.116;8.424;2023-07-31T10:36:18;25.70;56.30
22290;DHT22;11313;50.116;8.424;2023-07-31T10:38:44;25.70;56.30
22290;DHT22;11313;50.116;8.424;2023-07-31T10:41:10;25.70;56.30
22290;DHT22;11313;50.116;8.424;2023-07-31T10:43:37;25.70;56.30
22290;DHT22;11313;50.116;8.424;2023-07-31T10:46:12;25.70;56.30
22290;DHT22;11313;50.116;8.424;2023-07-31T10:48:40;25.70;56.30
22290;DHT22;11313;50.116;8.424;2023-07-31T10:51:11;25.70;56.30
22290;DHT22;11313;50.116;8.424;2023-07-31T10:53:37;25.70;56.30
22290;DHT22;11313;50.116;8.424;2023-07-31T10:56:12;25.70;56.30
22290;DHT22;11313;50.116;8.424;2023-07-31T10:58:44;25.70;56.20
22290;DHT22;11313;50.116;8.424;2023-07-31T11:01:09;25.60;56.10
22290;DHT22;11313;50.116;8.424;2023-07-31T11:03:46;25.70;56.20
22290;DHT22;11313;50.116;8.424;2023-07-31T11:06:13;25.70;56.30
22290;DHT22;11313;50.116;8.424;2023-07-31T11:08:44;25.70;56.30
22290;DHT22;11313;50.116;8.424;2023-07-31T11:11:11;25.70;56.20
22290;DHT22;11313;50.116;8.424;2023-07-31T11:13:46;25.70;56.20
22290;DHT22;11313;50.116;8.424;2023-07-31T11:16:15;25.70;56.30
22290;DHT22;11313;50.116;8.424;2023-07-31T11:18:42;25.70;56.20
22290;DHT22;11313;50.116;8.424;2023-07-31T11:21:12;25.70;56.20
22290;DHT22;11313;50.116;8.424;2023-07-31T11:23:38;25.70;56.30
22290;DHT22;11313;50.116;8.424;2023-07-31T11:26:05;25.70;56.30
22290;DHT22;11313;50.116;8.424;2023-07-31T11:28:33;25.70;56.20
22290;DHT22;11313;50.116;8.424;2023-07-31T11:30:59;25.70;56.20
22290;DHT22;11313;50.116;8.424;2023-07-31T11:33:25;25.70;56.20
22290;DHT22;11313;50.116;8.424;2023-07-31T11:35:51;25.70;56.30
22290;DHT22;11313;50.116;8.424;2023-07-31T11:38:29;25.70;56.20
22290;DHT22;11313;50.116;8.424;2023-07-31T11:41:00;25.70;56.20
22290;DHT22;11313;50.116;8.424;2023-07-31T11:43:27;25.70;56.20
22290;DHT22;11313;50.116;8.424;2023-07-31T11:45:55;25.70;56.20
22290;DHT22;11313;50.116;8.424;2023-07-31T11:48:26;25.70;56.20
22290;DHT22;11313;50.116;8.424;2023-07-31T11:50:54;25.70;56.20
22290;DHT22;11313;50.116;8.424;2023-07-31T11:53:40;25.70;56.90
22290;DHT22;11313;50.116;8.424;2023-07-31T11:56:10;25.70;56.20
22290;DHT22;11313;50.116;8.424;2023-07-31T11:58:37;25.70;56.20
22290;DHT22;11313;50.116;8.424;2023-07-31T12:01:04;25.70;56.20
22290;DHT22;11313;50.116;8.424;2023-07-31T12:03:31;25.70;56.20
22290;DHT22;11313;50.116;8.424;2023-07-31T12:05:57;25.70;56.20
22290;DHT22;11313;50.116;8.424;2023-07-31T12:08:24;25.70;56.20
22290;DHT22;11313;50.116;8.424;2023-07-31T12:10:54;25.70;56.20
22290;DHT22;11313;50.116;8.424;2023-07-31T12:13:24;25.70;56.20
22290;DHT22;11313;50.116;8.424;2023-07-31T12:15:53;25.70;56.20
22290;DHT22;11313;50.116;8.424;2023-07-31T12:18:20;25.70;56.20
22290;DHT22;11313;50.116;8.424;2023-07-31T12:20:59;25.70;56.20
22290;DHT22;11313;50.116;8.424;2023-07-31T12:23:27;25.70;56.20
22290;DHT22;11313;50.116;8.424;2023-07-31T12:26:04;25.70;56.20
22290;DHT22;11313;50.116;8.424;2023-07-31T12:28:30;25.70;56.20
22290;DHT22;11313;50.116;8.424;2023-07-31T12:31:00;25.70;56.20
22290;DHT22;11313;50.116;8.424;2023-07-31T12:33:31;25.70;56.20
22290;DHT22;11313;50.116;8.424;2023-07-31T12:35:58;25.70;56.20
22290;DHT22;11313;50.116;8.424;2023-07-31T12:38:23;25.70;56.20
22290;DHT22;11313;50.116;8.424;2023-07-31T12:40:49;25.70;56.20
22290;DHT22;11313;50.116;8.424;2023-07-31T12:43:15;25.70;56.90
22290;DHT22;11313;50.116;8.424;2023-07-31T12:45:40;25.70;56.20
22290;DHT22;11313;50.116;8.424;2023-07-31T12:48:06;25.70;56.20
22290;DHT22;11313;50.116;8.424;2023-07-31T12:50:31;25.70;56.20
22290;DHT22;11313;50.116;8.424;2023-07-31T12:52:57;25.70;56.20
22290;DHT22;11313;50.116;8.424;2023-07-31T12:55:23;25.70;56.20
22290;DHT22;11313;50.116;8.424;2023-07-31T12:57:50;25.70;56.20
22290;DHT22;11313;50.116;8.424;2023-07-31T13:00:15;25.70;56.20
22290;DHT22;11313;50.116;8.424;2023-07-31T13:02:41;25.70;56.20
22290;DHT22;11313;50.116;8.424;2023-07-31T13:05:06;25.70;56.20
22290;DHT22;11313;50.116;8.424;2023-07-31T13:07:32;25.70;56.20
22290;DHT22;11313;50.116;8.424;2023-07-31T13:09:57;25.70;56.20
22290;DHT22;11313;50.116;8.424;2023-07-31T13:12:23;25.80;56.30
22290;DHT22;11313;50.116;8.424;2023-07-31T13:14:50;25.80;56.30
22290;DHT22;11313;50.116;8.424;2023-07-31T13:17:16;25.70;56.20
22290;DHT22;11313;50.116;8.424;2023-07-31T13:19:42;25.70;56.20
22290;DHT22;11313;50.116;8.424;2023-07-31T13:22:08;25.70;56.20
22290;DHT22;11313;50.116;8.424;2023-07-31T13:24:33;25.70;56.20
22290;DHT22;11313;50.116;8.424;2023-07-31T13:26:59;25.80;56.30
22290;DHT22;11313;50.116;8.424;2023-07-31T13:29:24;25.80;56.30
22290;DHT22;11313;50.116;8.424;2023-07-31T13:31:51;25.80;56.30
22290;DHT22;11313;50.116;8.424;2023-07-31T13:34:17;25.80;56.20
22290;DHT22;11313;50.116;8.424;2023-07-31T13:36:42;25.80;56.30
22290;DHT22;11313;50.116;8.424;2023-07-31T13:39:08;25.80;56.20
22290;DHT22;11313;50.116;8.424;2023-07-31T13:41:33;25.70;56.20
22290;DHT22;11313;50.116;8.424;2023-07-31T13:43:59;25.80;56.20
22290;DHT22;11313;50.116;8.424;2023-07-31T13:46:24;25.80;56.30
22290;DHT22;11313;50.116;8.424;2023-07-31T13:48:51;25.80;56.20
22290;DHT22;11313;50.116;8.424;2023-07-31T13:51:16;25.80;56.20
22290;DHT22;11313;50.116;8.424;2023-07-31T13:53:42;25.80;56.20
22290;DHT22;11313;50.116;8.424;2023-07-31T13:56:07;25.80;56.20
22290;DHT22;11313;50.116;8.424;2023-07-31T13:58:33;25.80;56.20
22290;DHT22;11313;50.116;8.424;2023-07-31T14:00:59;25.80;56.20
22290;DHT22;11313;50.116;8.424;2023-07-31T14:03:24;25.80;56.20
22290;DHT22;11313;50.116;8.424;2023-07-31T14:05:51;25.80;56.20
22290;DHT22;11313;50.116;8.424;2023-07-31T14:08:17;25.80;56.20
22290;DHT22;11313;50.116;8.424;2023-07-31T14:10:42;25.80;56.20
22290;DHT22;11313;50.116;8.424;2023-07-31T14:13:08;25.80;56.20
22290;DHT22;11313;50.116;8.424;2023-07-31T14:15:33;25.80;56.20
22290;DHT22;11313;50.116;8.424;2023-07-31T14:18:01;25.80;56.20
22290;DHT22;11313;50.116;8.424;2023-07-31T14:20:26;25.80;56.20
22290;DHT22;11313;50.116;8.424;2023-07-31T14:22:52;25.80;56.20
22290;DHT22;11313;50.116;8.424;2023-07-31T14:25:17;25.80;56.20
22290;DHT22;11313;50.116;8.424;2023-07-31T14:27:43;25.80;56.20
22290;DHT22;11313;50.116;8.424;2023-07-31T14:30:09;25.70;56.20
22290;DHT22;11313;50.116;8.424;2023-07-31T14:32:34;25.80;56.20
22290;DHT22;11313;50.116;8.424;2023-07-31T14:35:00;25.80;56.20
22290;DHT22;11313;50.116;8.424;2023-07-31T14:37:26;25.80;56.20
22290;DHT22;11313;50.116;8.424;2023-07-31T14:39:52;25.80;56.20
22290;DHT22;11313;50.116;8.424;2023-07-31T14:42:18;25.80;56.20
22290;DHT22;11313;50.116;8.424;2023-07-31T14:44:44;25.80;56.20
22290;DHT22;11313;50.116;8.424;2023-07-31T14:47:10;25.80;56.20
22290;DHT22;11313;50.116;8.424;2023-07-31T14:49:35;25.80;56.20
22290;DHT22;11313;50.116;8.424;2023-07-31T14:52:01;25.80;56.20
22290;DHT22;11313;50.116;8.424;2023-07-31T14:54:26;25.80;56.20
22290;DHT22;11313;50.116;8.424;2023-07-31T14:56:52;25.80;56.20
22290;DHT22;11313;50.116;8.424;2023-07-31T14:59:17;25.80;56.20
22290;DHT22;11313;50.116;8.424;2023-07-31T15:01:43;25.80;56.20
22290;DHT22;11313;50.116;8.424;2023-07-31T15:04:08;25.80;56.20
22290;DHT22;11313;50.116;8.424;2023-07-31T15:06:34;25.80;56.20
22290;DHT22;11313;50.116;8.424;2023-07-31T15:08:59;25.80;56.20
22290;DHT22;11313;50.116;8.424;2023-07-31T15:11:25;25.80;56.20
22290;DHT22;11313;50.116;8.424;2023-07-31T15:13:50;25.80;55.90
22290;DHT22;11313;50.116;8.424;2023-07-31T15:16:16;25.80;56.00
22290;DHT22;11313;50.116;8.424;2023-07-31T15:18:41;25.80;56.10
22290;DHT22;11313;50.116;8.424;2023-07-31T15:21:07;25.80;56.10
22290;DHT22;11313;50.116;8.424;2023-07-31T15:23:34;25.80;56.10
22290;DHT22;11313;50.116;8.424;2023-07-31T15:26:00;25.80;56.20
22290;DHT22;11313;50.116;8.424;2023-07-31T15:28:25;25.80;56.10
22290;DHT22;11313;50.116;8.424;2023-07-31T15:30:50;25.80;56.10
22290;DHT22;11313;50.116;8.424;2023-07-31T15:33:16;25.80;56.10
22290;DHT22;11313;50.116;8.424;2023-07-31T15:35:41;25.80;56.10